Time;durP1;ratioP1;P1;durP2;ratioP2;P2;SDS_P1;SDS_P2;PMS_P1;PMS_P2;Temp;Humidity;BMP_temperature;BMP_pressure;BME280_temperature;BME280_humidity;BME280_pressure;Samples;Min_cycle;Max_cycle;Signal;HPM_P1;HPM_P2
2021/08/07 00:02:06;;;;;;;2.37;2.27;;;;;;;12.65;100.00;97323.84;5058052;28;20203;-73
2021/08/07 00:04:34;;;;;;;3.20;2.50;;;;;;;12.65;100.00;97320.38;5059344;28;20292;-71
2021/08/07 00:07:02;;;;;;;3.23;2.83;;;;;;;12.56;100.00;97319.69;5050306;28;20411;-72
2021/08/07 00:09:32;;;;;;;2.57;2.47;;;;;;;12.50;100.00;97316.00;5060274;28;20206;-70
2021/08/07 00:12:00;;;;;;;3.83;2.70;;;;;;;12.45;100.00;97318.38;5067042;28;20203;-71
2021/08/07 00:14:28;;;;;;;3.00;2.80;;;;;;;12.48;100.00;97320.66;5060472;28;20637;-72
2021/08/07 00:16:56;;;;;;;2.93;2.73;;;;;;;12.51;100.00;97322.13;5062509;28;21373;-72
2021/08/07 00:19:23;;;;;;;3.13;2.93;;;;;;;12.46;100.00;97320.03;5055927;28;20226;-71
2021/08/07 00:21:51;;;;;;;4.27;3.20;;;;;;;12.45;100.00;97321.03;5056116;28;20252;-72
2021/08/07 00:24:19;;;;;;;2.63;2.43;;;;;;;12.55;100.00;97308.25;5059420;28;20233;-71
2021/08/07 00:26:49;;;;;;;3.30;3.03;;;;;;;12.43;100.00;97310.63;5066130;28;20598;-72
2021/08/07 00:29:16;;;;;;;2.90;2.70;;;;;;;12.34;100.00;97306.47;5060786;28;20223;-72
2021/08/07 00:31:44;;;;;;;3.77;2.87;;;;;;;12.34;100.00;97293.19;5062862;28;20295;-70
2021/08/07 00:34:12;;;;;;;3.67;3.37;;;;;;;12.28;100.00;97304.56;5065838;28;20241;-72
2021/08/07 00:36:41;;;;;;;7.27;3.50;;;;;;;12.24;100.00;97298.81;5057220;28;20212;-71
2021/08/07 00:39:09;;;;;;;2.47;2.37;;;;;;;12.26;100.00;97307.41;5066252;28;20226;-72
2021/08/07 00:41:37;;;;;;;3.20;2.90;;;;;;;12.29;100.00;97306.19;5058097;28;20206;-71
2021/08/07 00:44:06;;;;;;;2.50;2.30;;;;;;;12.21;100.00;97301.84;5062189;28;20210;-71
2021/08/07 00:46:34;;;;;;;5.50;3.23;;;;;;;12.18;100.00;97299.59;5062230;28;20237;-71
2021/08/07 00:49:03;;;;;;;3.00;2.80;;;;;;;12.22;100.00;97292.88;5059139;28;20856;-71
2021/08/07 00:51:31;;;;;;;2.80;2.60;;;;;;;12.31;100.00;97296.19;5063062;28;20208;-72
2021/08/07 00:54:00;;;;;;;4.20;3.43;;;;;;;12.15;100.00;97294.66;5063699;28;20273;-71
2021/08/07 00:56:28;;;;;;;2.60;2.50;;;;;;;12.18;100.00;97285.47;5054170;28;20207;-71
2021/08/07 00:58:56;;;;;;;2.53;2.43;;;;;;;12.19;100.00;97287.09;5063348;28;20219;-71
2021/08/07 01:01:28;;;;;;;3.10;2.80;;;;;;;12.21;100.00;97283.25;5060356;28;20211;-71
2021/08/07 01:03:57;;;;;;;6.43;3.00;;;;;;;12.18;100.00;97282.81;5054034;28;20755;-71
2021/08/07 01:06:30;;;;;;;2.93;2.67;;;;;;;12.14;100.00;97280.53;5062786;28;20572;-71
2021/08/07 01:09:08;;;;;;;3.23;2.93;;;;;;;12.07;100.00;97286.81;5056379;28;20502;-72
2021/08/07 01:11:42;;;;;;;2.73;2.60;;;;;;;12.05;100.00;97284.34;5069593;28;20202;-71
2021/08/07 01:14:10;;;;;;;2.70;2.50;;;;;;;12.01;100.00;97286.56;5057722;28;20211;-71
2021/08/07 01:16:42;;;;;;;2.77;2.57;;;;;;;12.02;100.00;97282.09;5060162;28;20217;-71
2021/08/07 01:19:19;;;;;;;2.60;2.50;;;;;;;11.99;100.00;97279.78;5058799;28;20231;-70
2021/08/07 01:21:51;;;;;;;2.80;2.70;;;;;;;11.88;100.00;97281.09;5056184;28;20205;-72
2021/08/07 01:24:23;;;;;;;2.90;2.70;;;;;;;11.86;100.00;97286.59;5060972;28;20225;-71
2021/08/07 01:27:06;;;;;;;2.80;2.60;;;;;;;11.82;100.00;97282.66;5062536;28;20215;-71
2021/08/07 01:29:34;;;;;;;4.87;3.07;;;;;;;11.81;100.00;97274.91;5059501;28;20203;-71
2021/08/07 01:32:03;;;;;;;3.00;2.80;;;;;;;11.78;100.00;97275.28;5060262;28;20578;-71
2021/08/07 01:34:32;;;;;;;3.60;3.07;;;;;;;11.82;100.00;97276.56;5054149;28;20773;-71
2021/08/07 01:37:00;;;;;;;2.87;2.67;;;;;;;11.79;100.00;97266.31;5056859;28;20206;-71
2021/08/07 01:39:28;;;;;;;3.33;3.13;;;;;;;11.71;100.00;97273.38;5066383;28;20210;-71
2021/08/07 01:41:55;;;;;;;3.50;2.53;;;;;;;11.79;100.00;97279.59;5056923;28;20234;-72
2021/08/07 01:44:25;;;;;;;3.53;3.10;;;;;;;11.82;100.00;97280.03;5059897;28;20211;-72
2021/08/07 01:46:56;;;;;;;3.07;2.87;;;;;;;11.81;100.00;97282.88;5063537;28;21156;-71
2021/08/07 01:49:30;;;;;;;3.33;3.03;;;;;;;11.83;100.00;97284.31;5061946;28;20238;-71
2021/08/07 01:52:03;;;;;;;4.20;3.20;;;;;;;11.76;100.00;97280.78;5063277;28;20205;-72
2021/08/07 01:54:33;;;;;;;2.73;2.63;;;;;;;11.71;100.00;97283.19;5051067;28;20210;-71
2021/08/07 01:57:04;;;;;;;3.03;2.83;;;;;;;11.67;100.00;97273.97;5061996;28;20542;-71
2021/08/07 01:59:34;;;;;;;3.43;3.23;;;;;;;11.60;100.00;97275.72;5067255;28;20210;-71
2021/08/07 02:02:03;;;;;;;3.23;2.93;;;;;;;11.55;100.00;97268.31;5059091;28;20210;-72
2021/08/07 02:04:32;;;;;;;3.07;2.87;;;;;;;11.60;100.00;97270.41;5061061;28;20207;-72
2021/08/07 02:07:00;;;;;;;2.97;2.70;;;;;;;11.55;100.00;97279.78;5062035;28;20329;-71
2021/08/07 02:09:28;;;;;;;3.30;3.10;;;;;;;11.53;100.00;97276.44;5062905;28;20545;-71
2021/08/07 02:11:56;;;;;;;3.07;2.87;;;;;;;11.46;100.00;97286.19;5059160;28;20211;-71
2021/08/07 02:14:27;;;;;;;3.53;2.93;;;;;;;11.43;100.00;97276.78;5052899;28;20208;-72
2021/08/07 02:16:57;;;;;;;3.20;2.90;;;;;;;11.47;100.00;97269.25;5059048;28;20246;-72
2021/08/07 02:19:25;;;;;;;4.17;3.20;;;;;;;11.56;100.00;97273.44;5062245;28;20239;-71
2021/08/07 02:21:53;;;;;;;3.50;3.40;;;;;;;11.52;100.00;97260.72;5057959;28;20704;-71
2021/08/07 02:24:24;;;;;;;3.20;3.00;;;;;;;11.51;100.00;97257.25;5062795;28;20203;-70
2021/08/07 02:26:53;;;;;;;4.30;3.70;;;;;;;11.54;100.00;97261.38;5060917;28;20568;-71
2021/08/07 02:29:21;;;;;;;3.23;3.03;;;;;;;11.47;100.00;97261.28;5066367;28;20233;-71
2021/08/07 02:31:50;;;;;;;2.93;2.73;;;;;;;11.43;100.00;97254.72;5058006;28;20679;-72
2021/08/07 02:34:19;;;;;;;3.37;2.57;;;;;;;11.39;100.00;97253.44;5060699;28;20204;-71
2021/08/07 02:36:48;;;;;;;4.23;3.23;;;;;;;11.37;100.00;97255.47;5059802;28;20214;-72
2021/08/07 02:39:16;;;;;;;2.77;2.57;;;;;;;11.34;100.00;97261.16;5068265;28;20281;-72
2021/08/07 02:41:44;;;;;;;5.13;2.87;;;;;;;11.34;100.00;97267.25;5061095;28;20565;-72
2021/08/07 02:44:13;;;;;;;3.37;3.03;;;;;;;11.34;100.00;97271.75;5065553;28;20210;-72
2021/08/07 02:46:41;;;;;;;3.43;2.90;;;;;;;11.32;100.00;97263.97;5064696;28;20701;-71
2021/08/07 02:49:09;;;;;;;3.13;2.93;;;;;;;11.33;100.00;97260.31;5065201;28;20249;-70
2021/08/07 02:51:40;;;;;;;3.13;2.80;;;;;;;11.37;100.00;97260.78;5065314;28;20202;-72
2021/08/07 02:54:08;;;;;;;2.77;2.67;;;;;;;11.28;100.00;97238.84;5068338;28;20206;-71
2021/08/07 02:56:36;;;;;;;2.50;2.40;;;;;;;11.29;100.00;97243.97;5060348;28;20206;-72
2021/08/07 02:59:04;;;;;;;3.50;3.20;;;;;;;11.26;100.00;97233.75;5066443;28;20253;-71
2021/08/07 03:01:32;;;;;;;3.20;2.90;;;;;;;11.33;100.00;97230.34;5060454;28;20206;-71
2021/08/07 03:04:01;;;;;;;4.20;2.90;;;;;;;11.29;100.00;97228.06;5054079;28;20203;-72
2021/08/07 03:06:29;;;;;;;3.03;2.93;;;;;;;11.33;100.00;97232.97;5063659;28;20231;-71
2021/08/07 03:08:59;;;;;;;3.10;2.90;;;;;;;11.28;100.00;97237.03;5058431;28;20333;-71
2021/08/07 03:11:26;;;;;;;3.03;2.80;;;;;;;11.42;100.00;97234.50;5065196;28;20741;-72
2021/08/07 03:13:54;;;;;;;4.50;2.90;;;;;;;11.36;100.00;97236.06;5065868;28;20222;-72
2021/08/07 03:16:22;;;;;;;3.10;2.80;;;;;;;11.30;100.00;97239.47;5060911;28;20368;-72
2021/08/07 03:18:50;;;;;;;3.00;2.77;;;;;;;11.34;100.00;97232.78;5062007;28;20231;-71
2021/08/07 03:21:18;;;;;;;2.80;2.70;;;;;;;11.35;100.00;97230.97;5062686;28;20199;-72
2021/08/07 03:23:46;;;;;;;2.87;2.60;;;;;;;11.42;100.00;97238.00;5060013;28;20203;-72
2021/08/07 03:26:16;;;;;;;2.80;2.70;;;;;;;11.45;100.00;97231.47;5075242;28;20693;-71
2021/08/07 03:28:44;;;;;;;4.73;2.90;;;;;;;11.36;100.00;97235.25;5059580;28;20223;-70
2021/08/07 03:31:11;;;;;;;3.30;3.00;;;;;;;11.34;100.00;97226.66;5059836;28;20202;-71
2021/08/07 03:33:39;;;;;;;3.67;3.33;;;;;;;11.32;100.00;97231.34;5059142;28;20297;-71
2021/08/07 03:36:07;;;;;;;3.50;3.20;;;;;;;11.28;100.00;97234.38;5058042;28;20301;-71
2021/08/07 03:38:35;;;;;;;4.57;3.10;;;;;;;11.27;100.00;97237.19;5064726;28;20223;-72
2021/08/07 03:41:03;;;;;;;4.60;2.87;;;;;;;11.32;100.00;97239.31;5064306;28;20208;-71
2021/08/07 03:43:33;;;;;;;3.03;2.83;;;;;;;11.23;100.00;97236.75;5065379;28;20761;-71
2021/08/07 03:46:01;;;;;;;3.23;3.00;;;;;;;11.24;100.00;97235.75;5062997;28;20245;-72
2021/08/07 03:48:29;;;;;;;2.77;2.60;;;;;;;11.25;100.00;97240.06;5059637;28;20631;-72
2021/08/07 03:50:57;;;;;;;3.23;2.90;;;;;;;11.24;100.00;97240.22;5068276;28;20206;-72
2021/08/07 03:53:25;;;;;;;3.23;2.70;;;;;;;11.31;100.00;97235.00;5065644;28;20606;-71
2021/08/07 03:55:52;;;;;;;3.00;2.70;;;;;;;11.28;100.00;97241.50;5062683;28;20437;-71
2021/08/07 03:58:20;;;;;;;3.80;2.83;;;;;;;11.39;100.00;97227.75;5055798;28;20224;-70
2021/08/07 04:00:50;;;;;;;2.87;2.70;;;;;;;11.42;100.00;97229.19;5057271;28;20210;-72
2021/08/07 04:03:18;;;;;;;3.30;2.83;;;;;;;11.44;100.00;97225.34;5067260;28;20253;-73
2021/08/07 04:05:46;;;;;;;2.70;2.60;;;;;;;11.41;100.00;97225.75;5061577;28;20305;-71
2021/08/07 04:08:14;;;;;;;3.20;2.90;;;;;;;11.38;100.00;97228.78;5060981;28;20237;-72
2021/08/07 04:10:42;;;;;;;2.83;2.63;;;;;;;11.44;100.00;97240.44;5058499;28;20202;-70
2021/08/07 04:13:10;;;;;;;3.00;2.80;;;;;;;11.42;100.00;97237.16;5063166;28;20199;-72
2021/08/07 04:15:38;;;;;;;3.00;2.80;;;;;;;11.44;100.00;97233.31;5061557;28;20678;-71
2021/08/07 04:18:08;;;;;;;2.77;2.57;;;;;;;11.49;100.00;97232.72;5053321;28;20667;-72
2021/08/07 04:20:36;;;;;;;3.20;2.90;;;;;;;11.52;100.00;97236.84;5060471;28;20683;-70
2021/08/07 04:23:05;;;;;;;2.80;2.60;;;;;;;11.61;100.00;97233.06;5059546;28;20206;-70
2021/08/07 04:25:33;;;;;;;3.70;3.40;;;;;;;11.59;100.00;97237.75;5055074;28;20236;-71
2021/08/07 04:28:01;;;;;;;3.33;3.20;;;;;;;11.65;100.00;97233.50;5060763;28;20547;-70
2021/08/07 04:30:29;;;;;;;3.47;3.17;;;;;;;11.65;100.00;97236.16;5058868;28;20524;-71
2021/08/07 04:32:57;;;;;;;3.67;3.00;;;;;;;11.67;100.00;97226.19;5055938;28;20210;-70
2021/08/07 04:35:27;;;;;;;3.03;2.83;;;;;;;11.68;100.00;97218.00;5050670;28;20623;-70
2021/08/07 04:37:56;;;;;;;2.90;2.77;;;;;;;11.79;100.00;97223.84;5056355;28;20715;-72
2021/08/07 04:40:26;;;;;;;3.10;2.90;;;;;;;11.80;100.00;97225.50;5063888;28;20266;-71
2021/08/07 04:42:54;;;;;;;3.30;2.97;;;;;;;11.77;100.00;97223.22;5055928;28;20211;-71
2021/08/07 04:45:22;;;;;;;3.43;3.23;;;;;;;11.84;100.00;97219.59;5064319;28;20231;-72
2021/08/07 04:47:51;;;;;;;2.77;2.67;;;;;;;11.81;100.00;97211.22;5055836;28;20234;-69
2021/08/07 04:50:20;;;;;;;3.97;2.90;;;;;;;11.79;100.00;97219.34;5060344;28;20266;-70
2021/08/07 04:52:49;;;;;;;3.17;2.97;;;;;;;11.88;100.00;97207.56;5057143;28;20202;-70
2021/08/07 04:55:17;;;;;;;4.30;2.80;;;;;;;11.84;100.00;97210.81;5055245;28;20290;-71
2021/08/07 04:57:46;;;;;;;2.97;2.70;;;;;;;11.80;100.00;97201.59;5053281;28;20214;-71
2021/08/07 05:00:15;;;;;;;4.53;3.17;;;;;;;11.79;100.00;97206.06;5064958;28;20746;-71
2021/08/07 05:02:45;;;;;;;6.20;3.23;;;;;;;11.85;100.00;97201.84;5052718;28;20235;-70
2021/08/07 05:05:14;;;;;;;3.40;3.00;;;;;;;11.96;100.00;97200.50;5050985;28;20214;-70
2021/08/07 05:07:42;;;;;;;3.33;3.03;;;;;;;12.05;100.00;97199.38;5057008;28;20230;-72
2021/08/07 05:10:13;;;;;;;7.17;2.90;;;;;;;12.15;100.00;97193.72;5049617;28;20651;-72
2021/08/07 05:12:41;;;;;;;4.23;3.07;;;;;;;12.20;100.00;97193.13;5049540;28;20267;-72
2021/08/07 05:15:10;;;;;;;4.57;3.20;;;;;;;12.36;100.00;97202.63;5054832;28;20212;-73
2021/08/07 05:17:38;;;;;;;4.20;2.80;;;;;;;12.48;100.00;97198.41;5048300;28;20841;-73
2021/08/07 05:20:07;;;;;;;3.13;2.93;;;;;;;12.62;100.00;97195.84;5049721;28;20206;-73
2021/08/07 05:22:35;;;;;;;3.77;3.57;;;;;;;12.77;100.00;97193.06;5054118;28;20527;-72
2021/08/07 05:25:03;;;;;;;2.43;2.33;;;;;;;13.10;100.00;97197.69;5049442;28;20203;-71
2021/08/07 05:27:33;;;;;;;4.03;2.70;;;;;;;13.19;100.00;97188.50;5052307;28;20390;-71
2021/08/07 05:30:00;;;;;;;2.70;2.60;;;;;;;13.22;100.00;97198.75;5049322;28;20212;-73
2021/08/07 05:32:28;;;;;;;2.50;2.40;;;;;;;13.36;100.00;97198.75;5050204;28;20207;-73
2021/08/07 05:34:56;;;;;;;2.53;2.43;;;;;;;13.37;100.00;97197.75;5056074;28;20212;-72
2021/08/07 05:37:24;;;;;;;2.90;2.33;;;;;;;13.52;100.00;97193.09;5051179;28;20227;-72
2021/08/07 05:39:52;;;;;;;3.13;2.67;;;;;;;13.52;100.00;97190.44;5054226;28;20229;-72
2021/08/07 05:42:20;;;;;;;3.23;2.40;;;;;;;13.41;100.00;97198.97;5049149;28;20208;-71
2021/08/07 05:44:49;;;;;;;4.03;2.70;;;;;;;13.44;100.00;97195.94;5048217;28;20723;-72
2021/08/07 05:47:17;;;;;;;2.50;2.40;;;;;;;13.38;100.00;97191.38;5054304;28;20449;-75
2021/08/07 05:49:45;;;;;;;2.90;2.70;;;;;;;13.47;100.00;97187.56;5046256;28;20220;-71
2021/08/07 05:52:13;;;;;;;3.60;2.30;;;;;;;13.44;100.00;97186.13;5055826;28;20247;-68
2021/08/07 05:54:41;;;;;;;4.90;2.43;;;;;;;13.49;100.00;97182.88;5053429;28;20729;-67
2021/08/07 05:57:09;;;;;;;2.73;2.53;;;;;;;13.41;100.00;97175.84;5048844;28;20196;-67
2021/08/07 05:59:37;;;;;;;6.80;2.77;;;;;;;13.43;100.00;97176.50;5053863;28;20207;-67
2021/08/07 06:02:07;;;;;;;3.93;2.67;;;;;;;13.60;100.00;97168.94;5055572;28;20610;-67
2021/08/07 06:04:35;;;;;;;3.37;2.67;;;;;;;13.71;100.00;97164.88;5056512;28;20277;-67
2021/08/07 06:07:03;;;;;;;5.87;2.60;;;;;;;13.82;100.00;97166.06;5051444;28;20738;-67
2021/08/07 06:09:31;;;;;;;2.83;2.63;;;;;;;13.89;100.00;97172.25;5057884;28;20204;-68
2021/08/07 06:11:59;;;;;;;2.63;2.37;;;;;;;14.10;100.00;97167.69;5061039;28;20213;-67
2021/08/07 06:14:27;;;;;;;2.20;2.10;;;;;;;14.23;100.00;97174.84;5059214;28;20264;-67
2021/08/07 06:16:55;;;;;;;2.67;2.47;;;;;;;14.47;100.00;97159.22;5051712;28;20210;-67
2021/08/07 06:19:24;;;;;;;2.80;2.60;;;;;;;14.59;100.00;97154.06;5059538;28;20272;-67
2021/08/07 06:21:52;;;;;;;2.33;1.93;;;;;;;14.74;100.00;97157.31;5049844;28;20257;-66
2021/08/07 06:24:20;;;;;;;2.53;2.33;;;;;;;14.98;100.00;97154.97;5053073;28;20730;-67
2021/08/07 06:26:48;;;;;;;2.40;2.20;;;;;;;14.89;100.00;97172.22;5059424;28;20214;-68
2021/08/07 06:29:16;;;;;;;2.97;2.23;;;;;;;15.05;100.00;97165.59;5051711;28;20255;-69
2021/08/07 06:31:44;;;;;;;2.40;2.20;;;;;;;15.22;100.00;97167.78;5057019;28;20662;-67
2021/08/07 06:34:12;;;;;;;2.50;2.30;;;;;;;15.28;100.00;97172.25;5055739;28;20400;-66
2021/08/07 06:36:41;;;;;;;2.50;2.30;;;;;;;15.26;100.00;97174.31;5053721;28;20226;-67
2021/08/07 06:39:09;;;;;;;2.40;2.20;;;;;;;15.38;100.00;97175.25;5058536;28;20220;-68
2021/08/07 06:41:37;;;;;;;2.67;2.00;;;;;;;15.47;100.00;97176.63;5054132;28;20455;-68
2021/08/07 06:44:05;;;;;;;2.40;2.20;;;;;;;15.62;100.00;97180.88;5055801;28;20211;-68
2021/08/07 06:46:33;;;;;;;2.77;1.67;;;;;;;15.61;100.00;97177.38;5051484;28;20913;-67
2021/08/07 06:49:01;;;;;;;3.60;1.80;;;;;;;15.77;100.00;97170.66;5057502;28;20230;-67
2021/08/07 06:51:29;;;;;;;2.43;2.33;;;;;;;16.08;100.00;97172.72;5054033;28;20200;-67
2021/08/07 06:53:58;;;;;;;2.47;1.90;;;;;;;16.24;100.00;97174.81;5060068;28;20206;-67
2021/08/07 06:56:26;;;;;;;3.10;1.97;;;;;;;16.28;100.00;97181.34;5052157;28;20203;-68
2021/08/07 06:58:54;;;;;;;5.20;2.37;;;;;;;16.49;100.00;97180.13;5051080;28;20229;-68
2021/08/07 07:01:22;;;;;;;2.83;2.63;;;;;;;16.56;100.00;97179.25;5053365;28;20684;-67
2021/08/07 07:03:50;;;;;;;2.57;2.00;;;;;;;16.70;100.00;97163.88;5053341;28;20206;-68
2021/08/07 07:06:18;;;;;;;2.37;1.73;;;;;;;16.86;100.00;97165.13;5058708;28;20220;-69
2021/08/07 07:08:46;;;;;;;2.10;1.90;;;;;;;17.00;100.00;97171.97;5046061;28;20226;-69
2021/08/07 07:11:15;;;;;;;3.00;2.20;;;;;;;17.30;100.00;97164.97;5055050;28;20226;-68
2021/08/07 07:13:45;;;;;;;2.50;2.30;;;;;;;17.48;100.00;97169.44;5059980;28;20203;-69
2021/08/07 07:16:13;;;;;;;2.53;1.83;;;;;;;17.54;100.00;97163.16;5052032;28;20611;-70
2021/08/07 07:18:42;;;;;;;2.03;1.87;;;;;;;17.77;100.00;97157.03;5060402;28;20781;-69
2021/08/07 07:21:10;;;;;;;2.60;1.80;;;;;;;17.82;100.00;97156.34;5047117;28;20781;-69
2021/08/07 07:23:38;;;;;;;3.90;2.37;;;;;;;18.24;96.89;97150.13;5060958;28;20216;-70
2021/08/07 07:26:06;;;;;;;4.47;2.40;;;;;;;18.35;97.47;97145.75;5064218;28;20216;-70
2021/08/07 07:28:35;;;;;;;1.80;1.53;;;;;;;18.43;96.49;97152.66;5054880;28;20429;-70
2021/08/07 07:31:03;;;;;;;2.23;1.60;;;;;;;18.57;94.85;97158.56;5053128;28;20694;-70
2021/08/07 07:33:31;;;;;;;4.80;1.90;;;;;;;18.83;94.04;97151.06;5055599;28;20200;-70
2021/08/07 07:36:00;;;;;;;2.13;1.70;;;;;;;18.95;90.61;97151.81;5052254;28;20302;-70
2021/08/07 07:38:30;;;;;;;2.33;1.53;;;;;;;19.11;88.92;97157.50;5053075;28;20246;-72
2021/08/07 07:40:58;;;;;;;1.80;1.70;;;;;;;19.26;88.08;97147.06;5052350;28;20287;-70
2021/08/07 07:43:26;;;;;;;1.83;1.73;;;;;;;19.51;85.93;97154.75;5055279;28;20238;-70
2021/08/07 07:45:56;;;;;;;1.80;1.70;;;;;;;19.69;85.65;97154.78;5052955;28;20214;-70
2021/08/07 07:48:24;;;;;;;1.73;1.63;;;;;;;19.90;83.39;97159.47;5049456;28;20227;-71
2021/08/07 07:50:52;;;;;;;2.37;1.63;;;;;;;19.89;82.01;97160.50;5052780;28;20203;-71
2021/08/07 07:53:20;;;;;;;3.03;2.30;;;;;;;19.99;82.13;97159.84;5056640;28;20402;-71
2021/08/07 07:55:48;;;;;;;2.17;1.60;;;;;;;19.89;82.84;97141.69;5055235;28;20206;-69
2021/08/07 07:58:16;;;;;;;2.40;1.90;;;;;;;19.88;84.42;97126.56;5058286;28;20246;-71
2021/08/07 08:00:44;;;;;;;1.87;1.70;;;;;;;19.98;82.66;97119.78;5051894;28;20199;-73
2021/08/07 08:03:13;;;;;;;2.93;1.90;;;;;;;20.04;82.19;97133.03;5051806;28;20207;-71
2021/08/07 08:05:41;;;;;;;2.03;1.67;;;;;;;20.21;79.75;97133.00;5058234;28;20287;-73
2021/08/07 08:08:09;;;;;;;4.20;1.90;;;;;;;20.24;80.85;97126.31;5047946;28;20227;-73
2021/08/07 08:10:38;;;;;;;2.23;2.03;;;;;;;20.38;78.31;97116.03;5060696;28;20207;-72
2021/08/07 08:13:06;;;;;;;2.10;2.00;;;;;;;20.43;80.68;97109.88;5047684;28;20305;-73
2021/08/07 08:15:37;;;;;;;3.73;1.67;;;;;;;20.60;77.74;97107.97;5054007;28;20207;-72
2021/08/07 08:18:05;;;;;;;2.63;1.53;;;;;;;20.76;76.18;97100.06;5049051;28;20261;-72
2021/08/07 08:20:35;;;;;;;2.10;1.90;;;;;;;20.85;73.85;97095.91;5055032;28;20579;-72
2021/08/07 08:23:03;;;;;;;1.63;1.53;;;;;;;20.93;74.23;97097.31;5055008;28;20600;-72
2021/08/07 08:25:32;;;;;;;2.13;2.00;;;;;;;21.11;72.81;97088.06;5056308;28;20222;-72
2021/08/07 08:28:00;;;;;;;2.13;1.60;;;;;;;21.18;71.15;97093.25;5049541;28;20582;-72
2021/08/07 08:30:28;;;;;;;1.87;1.73;;;;;;;21.45;71.17;97103.19;5051678;28;20235;-73
2021/08/07 08:32:56;;;;;;;1.83;1.70;;;;;;;21.57;70.45;97106.53;5051010;28;20207;-70
2021/08/07 08:35:24;;;;;;;2.10;1.90;;;;;;;21.54;68.48;97102.44;5048863;28;20231;-72
2021/08/07 08:37:54;;;;;;;1.50;1.40;;;;;;;21.59;68.68;97087.38;5054218;28;20311;-72
2021/08/07 08:40:21;;;;;;;3.60;1.93;;;;;;;21.83;69.93;97082.50;5051386;28;20211;-71
2021/08/07 08:42:49;;;;;;;1.70;1.60;;;;;;;22.07;66.43;97077.50;5052912;28;20215;-72
2021/08/07 08:45:17;;;;;;;2.97;1.70;;;;;;;22.19;66.68;97085.41;5053428;28;20590;-73
2021/08/07 08:47:46;;;;;;;1.80;1.63;;;;;;;22.26;66.30;97077.06;5053943;28;20225;-73
2021/08/07 08:50:16;;;;;;;3.30;1.57;;;;;;;22.26;64.76;97085.97;5055724;28;20297;-71
2021/08/07 08:52:44;;;;;;;1.90;1.47;;;;;;;22.30;66.00;97080.84;5054703;28;20198;-73
2021/08/07 08:55:13;;;;;;;1.53;1.43;;;;;;;22.62;62.82;97074.53;5053796;28;20207;-73
2021/08/07 08:57:41;;;;;;;1.63;1.53;;;;;;;22.72;62.65;97076.47;5044063;28;20229;-72
2021/08/07 09:00:11;;;;;;;2.87;1.83;;;;;;;22.73;61.46;97079.97;5051355;28;20199;-72
2021/08/07 09:02:39;;;;;;;2.63;1.87;;;;;;;22.73;61.70;97079.97;5055968;28;20219;-72
2021/08/07 09:05:09;;;;;;;3.30;2.20;;;;;;;22.62;63.12;97088.03;5051868;28;20203;-72
2021/08/07 09:07:37;;;;;;;1.60;1.50;;;;;;;22.52;61.74;97093.41;5052673;28;20228;-73
2021/08/07 09:10:06;;;;;;;2.37;1.67;;;;;;;22.45;63.17;97099.00;5051165;28;20219;-72
2021/08/07 09:12:42;;;;;;;2.00;1.63;;;;;;;22.54;62.31;97102.88;5055153;28;20727;-73
2021/08/07 09:15:25;;;;;;;1.63;1.50;;;;;;;22.78;61.53;97099.72;5051827;28;20211;-73
2021/08/07 09:18:12;;;;;;;3.33;1.80;;;;;;;23.15;58.17;97099.78;5055642;28;20221;-72
2021/08/07 09:20:41;;;;;;;1.30;1.30;;;;;;;23.57;58.40;97096.06;5052055;28;20678;-72
2021/08/07 09:23:09;;;;;;;1.37;1.27;;;;;;;23.68;56.69;97092.31;5059614;28;20212;-73
2021/08/07 09:25:38;;;;;;;1.97;1.80;;;;;;;24.11;55.07;97091.97;5049281;28;20215;-74
2021/08/07 09:28:08;;;;;;;2.23;2.03;;;;;;;24.24;55.45;97085.19;5050991;28;20223;-73
2021/08/07 09:30:38;;;;;;;2.10;1.40;;;;;;;23.96;53.09;97092.78;5051897;28;20223;-72
2021/08/07 09:33:09;;;;;;;1.77;1.60;;;;;;;23.74;55.66;97082.28;5047944;28;20231;-72
2021/08/07 09:35:38;;;;;;;2.33;1.60;;;;;;;23.59;55.14;97066.88;5053818;28;20203;-73
2021/08/07 09:38:08;;;;;;;2.30;1.40;;;;;;;23.61;55.33;97062.00;5055035;28;20220;-73
2021/08/07 09:40:57;;;;;;;1.60;1.50;;;;;;;23.75;56.51;97056.84;5055693;28;20207;-73
2021/08/07 09:43:29;;;;;;;1.87;1.77;;;;;;;24.00;55.01;97052.47;5047002;28;20482;-73
2021/08/07 09:46:02;;;;;;;2.63;2.10;;;;;;;24.19;53.87;97060.84;5053920;28;20892;-72
2021/08/07 09:48:33;;;;;;;2.07;1.97;;;;;;;23.97;54.61;97050.31;5051059;28;20254;-73
2021/08/07 09:51:24;;;;;;;1.80;1.70;;;;;;;24.27;56.06;97049.44;5050354;28;20613;-73
2021/08/07 09:54:05;;;;;;;1.63;1.53;;;;;;;24.61;50.86;97050.63;5056855;28;20621;-73
2021/08/07 09:56:44;;;;;;;1.33;1.27;;;;;;;24.43;50.92;97057.50;5049831;28;20241;-73
2021/08/07 09:59:14;;;;;;;5.07;4.60;;;;;;;24.36;54.45;97046.97;5048887;28;20227;-73
2021/08/07 10:01:42;;;;;;;2.87;2.63;;;;;;;24.62;50.66;97043.34;5051014;28;20217;-72
2021/08/07 10:04:12;;;;;;;1.83;1.40;;;;;;;24.67;53.08;97035.19;5049806;28;20630;-73
2021/08/07 10:06:41;;;;;;;2.10;2.00;;;;;;;24.94;51.45;97034.78;5053659;28;20210;-71
2021/08/07 10:09:09;;;;;;;3.47;3.20;;;;;;;25.02;49.93;97032.59;5048650;28;20227;-73
2021/08/07 10:11:38;;;;;;;1.67;1.57;;;;;;;24.89;48.14;97026.69;5057813;28;20315;-72
2021/08/07 10:14:06;;;;;;;3.33;2.70;;;;;;;25.12;48.68;97033.28;5051609;28;20672;-72
2021/08/07 10:16:36;;;;;;;2.10;1.90;;;;;;;25.12;48.40;97025.16;5052004;28;20209;-73
2021/08/07 10:19:07;;;;;;;2.03;1.60;;;;;;;25.38;47.76;97033.09;5051290;28;20723;-73
2021/08/07 10:21:35;;;;;;;2.60;2.00;;;;;;;25.29;46.72;97034.81;5051082;28;20547;-73
2021/08/07 10:24:03;;;;;;;1.90;1.80;;;;;;;25.39;49.52;97032.00;5050080;28;20215;-73
2021/08/07 10:26:34;;;;;;;1.77;1.53;;;;;;;25.49;46.54;97033.88;5049158;28;20480;-73
2021/08/07 10:29:04;;;;;;;2.43;1.83;;;;;;;25.51;45.71;97037.09;5048162;28;20249;-72
2021/08/07 10:31:33;;;;;;;3.00;2.27;;;;;;;25.52;45.83;97029.75;5051120;28;20230;-73
2021/08/07 10:34:04;;;;;;;4.10;2.27;;;;;;;25.27;46.16;97021.53;5046109;28;20211;-73
2021/08/07 10:36:32;;;;;;;2.60;1.90;;;;;;;25.20;45.68;97025.69;5056696;28;20689;-73
2021/08/07 10:39:02;;;;;;;2.37;1.90;;;;;;;25.07;47.65;97033.34;5051814;28;20308;-73
2021/08/07 10:41:31;;;;;;;1.97;1.80;;;;;;;24.92;45.62;97030.75;5054381;28;20203;-73
2021/08/07 10:44:01;;;;;;;1.90;1.63;;;;;;;25.02;46.80;97027.16;5052938;28;20213;-73
2021/08/07 10:46:29;;;;;;;3.23;1.87;;;;;;;24.98;47.36;97029.63;5047851;28;20211;-73
2021/08/07 10:48:57;;;;;;;3.57;1.60;;;;;;;24.79;47.58;97024.84;5063440;28;20230;-73
2021/08/07 10:51:38;;;;;;;1.60;1.50;;;;;;;24.61;49.09;97030.88;5054789;28;20322;-73
2021/08/07 10:54:33;;;;;;;1.97;1.87;;;;;;;24.16;49.57;97028.91;5057160;28;20215;-73
2021/08/07 10:57:01;;;;;;;2.33;1.90;;;;;;;23.96;50.77;97027.84;5053104;28;20349;-74
2021/08/07 10:59:30;;;;;;;2.17;2.00;;;;;;;23.78;51.60;97034.66;5051157;28;20903;-73
2021/08/07 11:01:59;;;;;;;4.00;1.87;;;;;;;23.77;51.54;97040.38;5053560;28;20210;-73
2021/08/07 11:04:30;;;;;;;1.93;1.83;;;;;;;23.51;52.09;97032.28;5052608;28;20360;-72
2021/08/07 11:07:08;;;;;;;2.20;2.00;;;;;;;23.57;53.73;97039.28;5057143;28;20217;-73
2021/08/07 11:09:39;;;;;;;2.10;1.90;;;;;;;23.53;54.86;97046.31;5062472;28;20667;-73
2021/08/07 11:12:18;;;;;;;1.93;1.83;;;;;;;23.66;54.02;97034.94;5053089;28;20237;-74
2021/08/07 11:14:49;;;;;;;2.17;2.03;;;;;;;23.64;54.88;97036.31;5053749;28;20210;-73
2021/08/07 11:17:51;;;;;;;1.97;1.87;;;;;;;23.63;56.17;97035.50;5052966;28;20559;-73
2021/08/07 11:20:41;;;;;;;3.20;1.70;;;;;;;23.71;55.45;97036.84;5053584;28;20198;-73
2021/08/07 11:23:15;;;;;;;2.90;1.70;;;;;;;23.92;55.81;97031.41;5060659;28;20222;-73
2021/08/07 11:26:05;;;;;;;3.80;2.30;;;;;;;24.17;53.49;97035.97;5050722;28;20237;-72
2021/08/07 11:28:34;;;;;;;1.20;1.20;;;;;;;24.22;53.74;97033.22;5054969;28;20231;-72
2021/08/07 11:31:22;;;;;;;1.90;1.80;;;;;;;24.15;52.95;97030.00;5056013;28;20226;-72
2021/08/07 11:34:22;;;;;;;1.60;1.50;;;;;;;23.99;53.69;97021.09;5049598;28;20210;-73
2021/08/07 11:37:20;;;;;;;2.90;1.77;;;;;;;24.07;53.55;97030.59;5051248;28;20207;-73
2021/08/07 11:40:10;;;;;;;3.73;1.70;;;;;;;23.90;53.30;97023.56;5050882;28;20214;-73
2021/08/07 11:42:41;;;;;;;1.80;1.70;;;;;;;23.69;54.05;97010.09;5060137;28;20265;-71